Red Oak, Texas
Current Conditions -  °F | °C
As of 1:35 PM on Wednesday 17 Dec 2014 (Local Time) from KLNC Reporting Station
Overcast Overcast  
Wind Chill: 42°   Ceiling: 3800
Heat Index: 47°   Visibility: 10mi
Dew Point: 36°   Wind: 9mph
Humidity: 67%   Direction: 120°ESE
Pressure: 30.15"   Gusts: NA
Location:  32.52°N, 96.8°W
Report Text: KLNC 171935Z AUTO 12008KT 10SM BKN038 OVC045 08/02 A3015 RMK AO2 LTG DSNT NW T00810023
Loading
Personal Weather Stations






























Interactive Weather Map New forecast layout! Learn more

10-Day Weather Forecast

Advertisements
Track Severe Weather on mobile